Time;durP1;ratioP1;P1;durP2;ratioP2;P2;SDS_P1;SDS_P2;PMS_P1;PMS_P2;Temp;Humidity;BMP_temperature;BMP_pressure;BME280_temperature;BME280_humidity;BME280_pressure;Samples;Min_cycle;Max_cycle;Signal;HPM_P1;HPM_P2
2021/07/09 00:01:55;;;;;;;;;;;;;;;13.00;100.00;100153.16;4996974;28;19926;-74
2021/07/09 00:04:23;;;;;;;;;;;;;;;13.18;100.00;100156.59;4992284;28;19969;-74
2021/07/09 00:06:50;;;;;;;;;;;;;;;13.12;100.00;100161.06;4995640;28;19929;-74
2021/07/09 00:09:18;;;;;;;;;;;;;;;13.31;100.00;100171.72;4994489;28;20051;-74
2021/07/09 00:11:47;;;;;;;;;;;;;;;13.44;100.00;100164.34;4996523;28;19925;-75
2021/07/09 00:14:15;;;;;;;;;;;;;;;13.39;100.00;100155.59;5016214;28;19972;-74
2021/07/09 00:16:46;;;;;;;;;;;;;;;13.29;100.00;100162.09;4998717;28;19933;-74
2021/07/09 00:19:14;;;;;;;;;;;;;;;13.38;100.00;100159.59;5016265;28;19965;-74
2021/07/09 00:21:41;;;;;;;;;;;;;;;13.34;100.00;100159.66;4982489;28;19933;-74
2021/07/09 00:24:09;;;;;;;;;;;;;;;13.19;100.00;100157.41;4998174;28;19932;-74
2021/07/09 00:26:37;;;;;;;;;;;;;;;12.72;100.00;100148.53;4982261;28;19965;-74
2021/07/09 00:29:05;;;;;;;;;;;;;;;12.85;100.00;100153.63;5015691;28;19925;-74
2021/07/09 00:31:33;;;;;;;;;;;;;;;12.91;100.00;100152.78;5015731;28;19944;-74
2021/07/09 00:34:01;;;;;;;;;;;;;;;12.77;100.00;100157.72;5015673;28;20321;-74
2021/07/09 00:36:29;;;;;;;;;;;;;;;12.81;100.00;100152.88;5015893;28;19926;-74
2021/07/09 00:38:56;;;;;;;;;;;;;;;12.63;100.00;100164.22;5015652;28;19925;-74
2021/07/09 00:41:23;;;;;;;;;;;;;;;12.63;100.00;100162.22;4982080;28;19932;-74
2021/07/09 00:43:50;;;;;;;;;;;;;;;12.75;100.00;100164.53;5015345;28;19932;-74
2021/07/09 00:46:27;;;;;;;;;;;;;;;12.52;100.00;100167.09;5015856;28;19950;-74
2021/07/09 00:48:54;;;;;;;;;;;;;;;12.56;100.00;100175.47;5015413;28;19925;-74
2021/07/09 00:51:22;;;;;;;;;;;;;;;12.51;100.00;100179.50;4998136;28;19941;-74
2021/07/09 00:53:49;;;;;;;;;;;;;;;12.46;100.00;100171.53;5015342;28;19925;-74
2021/07/09 00:56:16;;;;;;;;;;;;;;;12.44;100.00;100179.56;5015162;28;19932;-74
2021/07/09 00:58:44;;;;;;;;;;;;;;;12.61;100.00;100189.88;5015633;28;19936;-74
2021/07/09 01:01:11;;;;;;;;;;;;;;;12.59;100.00;100186.69;4997774;28;19926;-74
2021/07/09 01:03:38;;;;;;;;;;;;;;;12.66;100.00;100189.44;5015227;28;20393;-74
2021/07/09 01:06:05;;;;;;;;;;;;;;;12.64;100.00;100183.44;5015036;28;19948;-74
2021/07/09 01:08:34;;;;;;;;;;;;;;;12.50;100.00;100194.75;4997701;28;20024;-74
2021/07/09 01:11:01;;;;;;;;;;;;;;;12.49;100.00;100184.75;4997260;28;19925;-74
2021/07/09 01:13:28;;;;;;;;;;;;;;;12.49;100.00;100187.56;5015042;28;20020;-74
2021/07/09 01:15:55;;;;;;;;;;;;;;;12.19;100.00;100178.88;4981655;28;19926;-74
2021/07/09 01:18:22;;;;;;;;;;;;;;;12.10;100.00;100177.75;4981157;28;19929;-74
2021/07/09 01:20:49;;;;;;;;;;;;;;;12.04;100.00;100168.94;5014882;28;19941;-74
2021/07/09 01:23:18;;;;;;;;;;;;;;;11.96;100.00;100167.41;5014851;28;19975;-74
2021/07/09 01:25:46;;;;;;;;;;;;;;;11.94;100.00;100152.19;4997535;28;19926;-74
2021/07/09 01:28:12;;;;;;;;;;;;;;;12.04;100.00;100152.16;4997438;28;19925;-74
2021/07/09 01:30:40;;;;;;;;;;;;;;;11.75;100.00;100141.47;5014726;28;19925;-74
2021/07/09 01:33:07;;;;;;;;;;;;;;;11.62;100.00;100141.13;4997377;28;20021;-74
2021/07/09 01:35:34;;;;;;;;;;;;;;;11.69;100.00;100143.88;5014513;28;19925;-74
2021/07/09 01:38:04;;;;;;;;;;;;;;;11.70;100.00;100139.91;5013883;28;19929;-74
2021/07/09 01:40:31;;;;;;;;;;;;;;;11.70;100.00;100134.28;5014266;28;19941;-74
2021/07/09 01:42:59;;;;;;;;;;;;;;;11.79;100.00;100131.88;4980930;28;20041;-74
2021/07/09 01:45:27;;;;;;;;;;;;;;;11.75;100.00;100122.69;5014404;28;19932;-74
2021/07/09 01:47:54;;;;;;;;;;;;;;;11.76;100.00;100121.47;5014496;28;20041;-74
2021/07/09 01:50:22;;;;;;;;;;;;;;;11.64;100.00;100127.53;5014475;28;20094;-74
2021/07/09 01:52:50;;;;;;;;;;;;;;;11.70;100.00;100123.09;4997000;28;20040;-74
2021/07/09 01:55:17;;;;;;;;;;;;;;;11.74;100.00;100123.88;4997110;28;19925;-74
2021/07/09 01:57:44;;;;;;;;;;;;;;;11.74;100.00;100123.88;4980962;28;19925;-74
2021/07/09 02:00:13;;;;;;;;;;;;;;;11.70;100.00;100117.50;5014382;28;19937;-74
2021/07/09 02:02:41;;;;;;;;;;;;;;;11.49;100.00;100106.34;5014222;28;20012;-74
2021/07/09 02:05:10;;;;;;;;;;;;;;;11.24;100.00;100104.81;4996826;28;20381;-74
2021/07/09 02:07:37;;;;;;;;;;;;;;;11.29;100.00;100099.59;5014138;28;19926;-74
2021/07/09 02:10:05;;;;;;;;;;;;;;;11.32;100.00;100104.38;5014060;28;19926;-75
2021/07/09 02:12:32;;;;;;;;;;;;;;;11.33;100.00;100099.59;5013796;28;19926;-74
2021/07/09 02:15:01;;;;;;;;;;;;;;;11.33;100.00;100094.00;5012685;28;19925;-74
2021/07/09 02:17:28;;;;;;;;;;;;;;;11.39;100.00;100095.97;5013517;28;19931;-74
2021/07/09 02:19:55;;;;;;;;;;;;;;;11.35;100.00;100099.97;4996269;28;20353;-74
2021/07/09 02:22:22;;;;;;;;;;;;;;;11.20;100.00;100099.22;5013899;28;20328;-74
2021/07/09 02:24:50;;;;;;;;;;;;;;;11.21;100.00;100089.63;4996073;28;19929;-74
2021/07/09 02:27:17;;;;;;;;;;;;;;;11.28;100.00;100089.63;5013947;28;19933;-75
2021/07/09 02:29:45;;;;;;;;;;;;;;;11.37;100.00;100087.19;5013826;28;20015;-74
2021/07/09 02:32:13;;;;;;;;;;;;;;;11.65;100.00;100091.91;4995993;28;19932;-74
2021/07/09 02:34:41;;;;;;;;;;;;;;;11.54;100.00;100089.13;4996221;28;20020;-74
2021/07/09 02:37:09;;;;;;;;;;;;;;;11.40;100.00;100092.00;4996230;28;19929;-74
2021/07/09 02:39:37;;;;;;;;;;;;;;;11.42;100.00;100083.97;5013625;28;20392;-74
2021/07/09 02:42:04;;;;;;;;;;;;;;;11.45;100.00;100091.53;5013615;28;19925;-74
2021/07/09 02:44:31;;;;;;;;;;;;;;;11.36;100.00;100079.22;5013736;28;19926;-74
2021/07/09 02:46:58;;;;;;;;;;;;;;;11.37;100.00;100086.38;4979748;28;20104;-74
2021/07/09 02:49:25;;;;;;;;;;;;;;;11.40;100.00;100086.38;5013378;28;19929;-74
2021/07/09 02:51:52;;;;;;;;;;;;;;;11.38;100.00;100091.59;5013607;28;19932;-74
2021/07/09 02:54:19;;;;;;;;;;;;;;;11.36;100.00;100085.59;5013283;28;19957;-74
2021/07/09 02:56:47;;;;;;;;;;;;;;;11.30;100.00;100078.81;5013755;28;19926;-74
2021/07/09 02:59:14;;;;;;;;;;;;;;;11.40;100.00;100074.38;4995995;28;19981;-74
2021/07/09 03:01:41;;;;;;;;;;;;;;;11.13;100.00;100065.69;5013478;28;19948;-74
2021/07/09 03:04:09;;;;;;;;;;;;;;;11.10;100.00;100068.47;5013208;28;19979;-74
2021/07/09 03:06:37;;;;;;;;;;;;;;;11.12;100.00;100058.47;5013490;28;20392;-74
2021/07/09 03:09:04;;;;;;;;;;;;;;;11.15;100.00;100060.47;5012824;28;20435;-74
2021/07/09 03:11:35;;;;;;;;;;;;;;;11.25;100.00;100065.25;5011072;28;19926;-74
2021/07/09 03:14:03;;;;;;;;;;;;;;;11.23;100.00;100059.25;4996006;28;19933;-74
2021/07/09 03:16:30;;;;;;;;;;;;;;;11.30;100.00;100070.41;5013208;28;20020;-74
2021/07/09 03:18:57;;;;;;;;;;;;;;;11.48;100.00;100073.16;5013457;28;19925;-74
2021/07/09 03:21:24;;;;;;;;;;;;;;;11.60;100.00;100078.31;4995144;28;19925;-74
2021/07/09 03:23:51;;;;;;;;;;;;;;;11.71;100.00;100090.28;4995215;28;19926;-74
2021/07/09 03:29:09;;;;;;;;;;;;;;;11.76;100.00;100093.47;4971119;28;19930;-74
2021/07/09 03:31:36;;;;;;;;;;;;;;;11.82;100.00;100107.84;5003899;28;19925;-74
2021/07/09 03:34:03;;;;;;;;;;;;;;;11.92;100.00;100113.38;5013068;28;19926;-74
2021/07/09 03:36:30;;;;;;;;;;;;;;;11.88;100.00;100109.81;5012961;28;19955;-74
2021/07/09 03:38:58;;;;;;;;;;;;;;;11.82;100.00;100119.84;4979350;28;19932;-73
2021/07/09 03:41:25;;;;;;;;;;;;;;;11.75;100.00;100125.50;4995579;28;19929;-74
2021/07/09 03:43:52;;;;;;;;;;;;;;;11.73;100.00;100118.69;5012692;28;19931;-74
2021/07/09 03:46:19;;;;;;;;;;;;;;;11.86;100.00;100128.25;5013135;28;19929;-74
2021/07/09 03:48:47;;;;;;;;;;;;;;;11.84;100.00;100137.06;4995339;28;20357;-74
2021/07/09 03:51:14;;;;;;;;;;;;;;;11.90;100.00;100138.22;5013105;28;20032;-74
2021/07/09 03:53:41;;;;;;;;;;;;;;;11.83;100.00;100132.63;5013062;28;19930;-74
2021/07/09 03:56:08;;;;;;;;;;;;;;;11.89;100.00;100136.59;5012955;28;19948;-74
2021/07/09 03:58:36;;;;;;;;;;;;;;;11.80;100.00;100139.03;5012041;28;20417;-74
2021/07/09 04:01:04;;;;;;;;;;;;;;;11.77;100.00;100153.09;5014892;28;19930;-74
2021/07/09 04:03:31;;;;;;;;;;;;;;;11.73;100.00;100150.28;4999050;28;19932;-74
2021/07/09 04:05:58;;;;;;;;;;;;;;;11.85;100.00;100175.03;4998997;28;19926;-74
2021/07/09 04:08:26;;;;;;;;;;;;;;;11.81;100.00;100170.66;4998139;28;20464;-74
2021/07/09 04:10:53;;;;;;;;;;;;;;;11.86;100.00;100178.66;4995425;28;19925;-74
2021/07/09 04:13:20;;;;;;;;;;;;;;;11.75;100.00;100178.69;5015286;28;20007;-74
2021/07/09 04:15:47;;;;;;;;;;;;;;;11.49;100.00;100184.72;5015069;28;19926;-74
2021/07/09 04:18:15;;;;;;;;;;;;;;;11.50;100.00;100186.31;4997884;28;19925;-74
2021/07/09 04:20:43;;;;;;;;;;;;;;;11.56;100.00;100207.09;5011450;28;19925;-74
2021/07/09 04:23:10;;;;;;;;;;;;;;;11.67;100.00;100207.09;5016007;28;19940;-74
2021/07/09 04:25:37;;;;;;;;;;;;;;;11.72;100.00;100204.66;5016078;28;19925;-74
2021/07/09 04:28:04;;;;;;;;;;;;;;;11.75;100.00;100206.69;4998510;28;19925;-74
2021/07/09 04:30:32;;;;;;;;;;;;;;;11.82;100.00;100240.25;4998560;28;19984;-74
2021/07/09 04:32:59;;;;;;;;;;;;;;;11.80;100.00;100239.84;5015965;28;19925;-74
2021/07/09 04:35:26;;;;;;;;;;;;;;;11.77;100.00;100240.66;5016029;28;19925;-74
2021/07/09 04:37:53;;;;;;;;;;;;;;;11.99;100.00;100250.63;4982561;28;19933;-74
2021/07/09 04:40:20;;;;;;;;;;;;;;;12.13;100.00;100261.78;5015460;28;20411;-74
2021/07/09 04:42:47;;;;;;;;;;;;;;;12.13;100.00;100267.38;5015852;28;19933;-74
2021/07/09 04:45:14;;;;;;;;;;;;;;;12.25;100.00;100260.53;5015837;28;20009;-74
2021/07/09 04:47:42;;;;;;;;;;;;;;;12.16;100.00;100269.34;5015808;28;19960;-74
2021/07/09 04:50:09;;;;;;;;;;;;;;;12.25;100.00;100278.13;4998223;28;19933;-74
2021/07/09 04:52:36;;;;;;;;;;;;;;;12.41;100.00;100269.28;4998153;28;19925;-74
2021/07/09 04:55:05;;;;;;;;;;;;;;;12.47;100.00;100271.25;5015547;28;19926;-74
2021/07/09 04:57:32;;;;;;;;;;;;;;;12.59;100.00;100270.00;5015536;28;19925;-74
2021/07/09 04:59:59;;;;;;;;;;;;;;;12.64;100.00;100276.00;5015604;28;19932;-74
2021/07/09 05:02:27;;;;;;;;;;;;;;;12.44;100.00;100269.25;4997861;28;20388;-74
2021/07/09 05:04:54;;;;;;;;;;;;;;;12.35;100.00;100277.31;4997987;28;19926;-75
2021/07/09 05:07:21;;;;;;;;;;;;;;;12.32;100.00;100271.72;5015342;28;19929;-74
2021/07/09 05:09:48;;;;;;;;;;;;;;;12.41;100.00;100274.88;5015152;28;19932;-74
2021/07/09 05:12:15;;;;;;;;;;;;;;;12.39;100.00;100275.28;5014733;28;19933;-74
2021/07/09 05:14:42;;;;;;;;;;;;;;;12.61;100.00;100276.81;5015235;28;19949;-74
2021/07/09 05:17:10;;;;;;;;;;;;;;;12.83;100.00;100279.50;5015266;28;19973;-74
2021/07/09 05:19:37;;;;;;;;;;;;;;;12.97;100.00;100297.03;5014974;28;20075;-74
2021/07/09 05:22:04;;;;;;;;;;;;;;;13.11;100.00;100298.97;5015029;28;20419;-74
2021/07/09 05:24:31;;;;;;;;;;;;;;;13.24;100.00;100294.47;5014834;28;19930;-74
2021/07/09 05:26:59;;;;;;;;;;;;;;;13.32;100.00;100310.03;4981701;28;20018;-74
2021/07/09 05:29:28;;;;;;;;;;;;;;;13.19;100.00;100301.31;4997434;28;19926;-74
2021/07/09 05:31:57;;;;;;;;;;;;;;;13.20;100.00;100300.13;5014107;28;20020;-74
2021/07/09 05:34:28;;;;;;;;;;;;;;;13.34;100.00;100296.41;4996750;28;19932;-74
2021/07/09 05:37:04;;;;;;;;;;;;;;;13.50;100.00;100302.28;5012087;28;19968;-73
2021/07/09 05:39:31;;;;;;;;;;;;;;;13.74;100.00;100312.50;5014464;28;19937;-74
2021/07/09 05:42:00;;;;;;;;;;;;;;;13.86;100.00;100314.78;4996621;28;19933;-74
2021/07/09 05:44:27;;;;;;;;;;;;;;;14.09;100.00;100314.97;4996771;28;19932;-75
2021/07/09 05:46:56;;;;;;;;;;;;;;;14.36;100.00;100327.97;5014155;28;19933;-75
2021/07/09 05:49:23;;;;;;;;;;;;;;;14.40;100.00;100327.94;5013809;28;19976;-72
2021/07/09 05:51:50;;;;;;;;;;;;;;;14.57;100.00;100326.91;5011357;28;19925;-75
2021/07/09 05:54:17;;;;;;;;;;;;;;;14.96;100.00;100332.84;4990210;28;19929;-76
2021/07/09 05:56:45;;;;;;;;;;;;;;;15.19;100.00;100332.91;5010713;28;20004;-76
2021/07/09 05:59:12;;;;;;;;;;;;;;;15.42;100.00;100332.97;4992633;28;20024;-76
2021/07/09 06:01:41;;;;;;;;;;;;;;;15.42;100.00;100327.34;5009687;28;19929;-76
2021/07/09 06:04:09;;;;;;;;;;;;;;;15.66;100.00;100326.16;4993350;28;19976;-76
2021/07/09 06:06:36;;;;;;;;;;;;;;;15.85;100.00;100316.97;4991788;28;19925;-76
2021/07/09 06:09:02;;;;;;;;;;;;;;;15.88;100.00;100302.03;5010044;28;19933;-76
2021/07/09 06:11:30;;;;;;;;;;;;;;;15.76;100.00;100291.38;5010840;28;19926;-76
2021/07/09 06:13:57;;;;;;;;;;;;;;;15.75;100.00;100275.69;5009827;28;19925;-76
2021/07/09 06:16:25;;;;;;;;;;;;;;;15.88;100.00;100273.03;5010441;28;20440;-76
2021/07/09 06:18:52;;;;;;;;;;;;;;;15.91;100.00;100255.28;5010944;28;19925;-75
2021/07/09 06:21:22;;;;;;;;;;;;;;;15.68;100.00;100239.19;5009899;28;19930;-75
2021/07/09 06:23:50;;;;;;;;;;;;;;;15.92;100.00;100237.94;4991744;28;19934;-75
2021/07/09 06:26:18;;;;;;;;;;;;;;;16.02;100.00;100228.47;4993070;28;19925;-75
2021/07/09 06:28:46;;;;;;;;;;;;;;;16.06;100.00;100205.84;4992666;28;20277;-75
2021/07/09 06:31:13;;;;;;;;;;;;;;;16.12;100.00;100181.56;5009969;28;19929;-76
2021/07/09 06:33:40;;;;;;;;;;;;;;;16.18;100.00;100160.88;4993113;28;19995;-76
2021/07/09 06:36:07;;;;;;;;;;;;;;;16.16;100.00;100140.78;4994796;28;19932;-75
2021/07/09 06:38:34;;;;;;;;;;;;;;;16.24;100.00;100125.28;5015212;28;20008;-75
2021/07/09 06:41:02;;;;;;;;;;;;;;;16.34;100.00;100106.56;4979996;28;19930;-75
2021/07/09 06:43:30;;;;;;;;;;;;;;;16.45;100.00;100092.25;5013651;28;19926;-75
2021/07/09 06:45:57;;;;;;;;;;;;;;;16.49;100.00;100067.53;5013611;28;19940;-75
2021/07/09 06:48:25;;;;;;;;;;;;;;;16.55;100.00;100038.38;4980033;28;20272;-75
2021/07/09 06:50:52;;;;;;;;;;;;;;;16.74;100.00;100016.91;4996070;28;20032;-76
2021/07/09 06:53:19;;;;;;;;;;;;;;;17.27;100.00;99993.69;5011884;28;19925;-75
2021/07/09 06:55:47;;;;;;;;;;;;;;;18.44;100.00;99974.78;4978640;28;19925;-75
2021/07/09 06:58:14;;;;;;;;;;;;;;;20.11;100.00;99943.47;4991326;28;19972;-76
2021/07/09 07:00:41;;;;;;;;;;;;;;;21.23;100.00;99893.94;4975049;28;19929;-77
2021/07/09 07:03:09;;;;;;;;;;;;;;;21.59;100.00;99830.50;5011604;28;19960;-76
2021/07/09 07:05:36;;;;;;;;;;;;;;;22.86;100.00;99797.13;5008919;28;20385;-77
2021/07/09 07:08:12;;;;;;;;;;;;;;;23.95;100.00;99741.59;5013878;28;20379;-78
2021/07/09 07:10:43;;;;;;;;;;;;;;;23.70;100.00;99685.22;5009387;28;19934;-76
2021/07/09 07:13:11;;;;;;;;;;;;;;;24.53;100.00;99652.75;5012459;28;19933;-78
2021/07/09 07:15:39;;;;;;;;;;;;;;;24.26;100.00;99616.13;4987544;28;19933;-77
2021/07/09 07:18:10;;;;;;;;;;;;;;;22.93;100.00;99585.84;5005555;28;20340;-77
2021/07/09 07:20:42;;;;;;;;;;;;;;;20.98;100.00;99575.31;4990454;28;20399;-76
2021/07/09 07:23:09;;;;;;;;;;;;;;;19.76;100.00;99587.63;4990709;28;19926;-76
2021/07/09 07:25:37;;;;;;;;;;;;;;;18.92;100.00;99589.19;5008426;28;19925;-77
2021/07/09 07:28:05;;;;;;;;;;;;;;;18.29;100.00;99592.53;5008890;28;19925;-77
2021/07/09 07:30:32;;;;;;;;;;;;;;;18.66;100.00;99597.13;5009380;28;19925;-77
2021/07/09 07:32:59;;;;;;;;;;;;;;;18.68;100.00;99594.63;4974747;28;20640;-76
2021/07/09 07:35:28;;;;;;;;;;;;;;;18.81;100.00;99594.53;5009889;28;19926;-80
2021/07/09 07:37:55;;;;;;;;;;;;;;;19.74;100.00;99596.59;5012947;28;20683;-76
2021/07/09 07:40:23;;;;;;;;;;;;;;;22.30;100.00;99583.75;5009428;28;19936;-77
2021/07/09 07:42:50;;;;;;;;;;;;;;;23.06;100.00;99560.69;5012293;28;19925;-76
2021/07/09 07:45:17;;;;;;;;;;;;;;;22.90;100.00;99541.25;5012870;28;20306;-76
2021/07/09 07:47:44;;;;;;;;;;;;;;;24.61;100.00;99534.66;5010126;28;20396;-77
2021/07/09 07:50:13;;;;;;;;;;;;;;;25.87;100.00;99530.16;4993825;28;19931;-78
2021/07/09 07:52:40;;;;;;;;;;;;;;;26.49;100.00;99524.03;5010255;28;19932;-78
2021/07/09 07:55:07;;;;;;;;;;;;;;;26.60;100.00;99537.56;4993773;28;20369;-77
2021/07/09 07:57:34;;;;;;;;;;;;;;;25.31;100.00;99546.31;5012005;28;19925;-77
2021/07/09 08:00:02;;;;;;;;;;;;;;;24.52;100.00;99551.22;4995071;28;19938;-77
2021/07/09 08:02:39;;;;;;;;;;;;;;;24.75;100.00;99561.53;5007090;28;19964;-76
2021/07/09 08:05:07;;;;;;;;;;;;;;;25.43;100.00;99553.66;4975646;28;19933;-76
2021/07/09 08:07:35;;;;;;;;;;;;;;;26.49;100.00;99553.44;5014268;28;19925;-77
2021/07/09 08:10:03;;;;;;;;;;;;;;;25.86;100.00;99545.75;5012521;28;19957;-77
2021/07/09 08:12:30;;;;;;;;;;;;;;;24.88;100.00;99561.91;4989668;28;19926;-77
2021/07/09 08:14:57;;;;;;;;;;;;;;;24.69;100.00;99569.28;4994427;28;19930;-77
2021/07/09 08:17:24;;;;;;;;;;;;;;;25.62;100.00;99559.72;5012595;28;19932;-77
2021/07/09 08:19:52;;;;;;;;;;;;;;;25.62;100.00;99566.25;4992218;28;20451;-76
2021/07/09 08:22:19;;;;;;;;;;;;;;;23.73;100.00;99578.69;5015571;28;19925;-76
2021/07/09 08:24:47;;;;;;;;;;;;;;;24.04;100.00;99570.22;5019273;28;19926;-77
2021/07/09 08:27:14;;;;;;;;;;;;;;;24.19;100.00;99571.69;4981377;28;19929;-76
2021/07/09 08:29:42;;;;;;;;;;;;;;;24.71;100.00;99566.72;4998027;28;20362;-77
2021/07/09 08:32:10;;;;;;;;;;;;;;;25.17;100.00;99561.59;5015402;28;19933;-77
2021/07/09 08:34:37;;;;;;;;;;;;;;;24.10;100.00;99566.16;4993972;28;20484;-77
2021/07/09 08:37:04;;;;;;;;;;;;;;;23.25;100.00;99566.91;4994153;28;19976;-77
2021/07/09 08:39:31;;;;;;;;;;;;;;;23.16;100.00;99561.31;5012331;28;19934;-77
2021/07/09 08:41:58;;;;;;;;;;;;;;;22.92;100.00;99561.50;5011004;28;19926;-77
2021/07/09 08:44:26;;;;;;;;;;;;;;;22.51;100.00;99562.66;5011634;28;19937;-77
2021/07/09 08:46:55;;;;;;;;;;;;;;;22.05;100.00;99561.56;5011557;28;20045;-77
2021/07/09 08:49:22;;;;;;;;;;;;;;;21.79;100.00;99560.56;5011370;28;19956;-77
2021/07/09 08:51:50;;;;;;;;;;;;;;;21.71;100.00;99555.69;5010797;28;20435;-76
2021/07/09 08:54:18;;;;;;;;;;;;;;;21.59;100.00;99551.06;5011300;28;20012;-75
2021/07/09 08:56:47;;;;;;;;;;;;;;;21.09;100.00;99547.16;5005921;28;20056;-74
2021/07/09 08:59:14;;;;;;;;;;;;;;;20.99;100.00;99548.50;4976913;28;20412;-75
2021/07/09 09:01:52;;;;;;;;;;;;;;;21.06;100.00;99539.63;5011744;28;19930;-75
2021/07/09 09:04:28;;;;;;;;;;;;;;;21.24;100.00;99539.50;5011565;28;20021;-77
2021/07/09 09:07:15;;;;;;;;;;;;;;;21.26;100.00;99539.78;5011656;28;19929;-76
2021/07/09 09:09:43;;;;;;;;;;;;;;;21.40;100.00;99545.53;5010097;28;20379;-76
2021/07/09 09:12:12;;;;;;;;;;;;;;;20.86;100.00;99551.53;4976778;28;20023;-76
2021/07/09 09:14:43;;;;;;;;;;;;;;;20.82;100.00;99548.09;5010863;28;20456;-76
2021/07/09 09:17:28;;;;;;;;;;;;;;;21.40;100.00;99539.06;5014389;28;19956;-77
2021/07/09 09:20:11;;;;;;;;;;;;;;;21.44;100.00;99539.66;5021627;28;19925;-76
2021/07/09 09:22:50;;;;;;;;;;;;;;;21.83;100.00;99538.38;5007124;28;19963;-76
2021/07/09 09:25:19;;;;;;;;;;;;;;;21.88;100.00;99539.75;5008971;28;19940;-78
2021/07/09 09:27:58;;;;;;;;;;;;;;;21.66;100.00;99533.63;5010777;28;20435;-76
2021/07/09 09:30:26;;;;;;;;;;;;;;;21.59;100.00;99534.00;5010308;28;19925;-76
2021/07/09 09:32:53;;;;;;;;;;;;;;;21.85;100.00;99529.38;4999764;28;19925;-76
2021/07/09 09:35:21;;;;;;;;;;;;;;;21.99;100.00;99529.38;5009923;28;19960;-78
2021/07/09 09:37:55;;;;;;;;;;;;;;;22.23;100.00;99527.22;4972547;28;20281;-78
2021/07/09 09:40:26;;;;;;;;;;;;;;;22.56;100.00;99527.81;4974223;28;20681;-80
2021/07/09 09:42:54;;;;;;;;;;;;;;;21.90;100.00;99526.63;4983385;28;20293;-79
2021/07/09 09:45:22;;;;;;;;;;;;;;;22.05;100.00;99538.81;5009290;28;20739;-79
2021/07/09 09:47:50;;;;;;;;;;;;;;;22.32;100.00;99517.78;5009179;28;19925;-79
2021/07/09 09:50:18;;;;;;;;;;;;;;;22.28;100.00;99522.91;4993460;28;20377;-78
2021/07/09 09:52:45;;;;;;;;;;;;;;;22.79;100.00;99520.38;5010645;28;19956;-77
2021/07/09 09:55:30;;;;;;;;;;;;;;;23.06;100.00;99519.97;4986722;28;20732;-77
2021/07/09 09:58:07;;;;;;;;;;;;;;;23.05;100.00;99501.31;4998602;28;20295;-77
2021/07/09 10:00:35;;;;;;;;;;;;;;;23.42;100.00;99510.09;5015350;28;19925;-77
2021/07/09 10:03:13;;;;;;;;;;;;;;;23.87;100.00;99510.09;5010825;28;19925;-78
2021/07/09 10:05:44;;;;;;;;;;;;;;;23.59;100.00;99517.56;5010564;28;19925;-77
2021/07/09 10:08:12;;;;;;;;;;;;;;;23.32;100.00;99505.84;4993342;28;19976;-77
2021/07/09 10:10:40;;;;;;;;;;;;;;;23.29;100.00;99504.78;5010241;28;20016;-77
2021/07/09 10:13:08;;;;;;;;;;;;;;;23.25;100.00;99503.41;4992185;28;20384;-78
2021/07/09 10:15:36;;;;;;;;;;;;;;;23.11;100.00;99505.78;5009878;28;19926;-78
2021/07/09 10:18:04;;;;;;;;;;;;;;;23.03;100.00;99504.66;5008649;28;19937;-81
2021/07/09 10:20:32;;;;;;;;;;;;;;;23.33;100.00;99498.84;5007497;28;20304;-82
2021/07/09 10:23:01;;;;;;;;;;;;;;;23.42;100.00;99505.19;5002217;28;19925;-76
2021/07/09 10:25:29;;;;;;;;;;;;;;;23.31;100.00;99513.59;4992805;28;19960;-77
2021/07/09 10:27:56;;;;;;;;;;;;;;;22.77;100.00;99514.38;4991883;28;20293;-77
2021/07/09 10:30:34;;;;;;;;;;;;;;;22.91;100.00;99514.34;4973724;28;20337;-78
2021/07/09 10:33:22;;;;;;;;;;;;;;;23.02;100.00;99508.78;5009090;28;20633;-78
2021/07/09 10:35:49;;;;;;;;;;;;;;;23.40;100.00;99509.81;4991560;28;19929;-77
2021/07/09 10:38:19;;;;;;;;;;;;;;;23.17;100.00;99499.38;5009565;28;19932;-78
2021/07/09 10:40:46;;;;;;;;;;;;;;;22.60;100.00;99505.59;4992198;28;19925;-76
2021/07/09 10:43:16;;;;;;;;;;;;;;;22.68;100.00;99506.75;5008883;28;19941;-76
2021/07/09 10:45:45;;;;;;;;;;;;;;;22.82;100.00;99511.63;5008664;28;19932;-77
2021/07/09 10:48:13;;;;;;;;;;;;;;;23.01;100.00;99514.97;5009578;28;19960;-77
2021/07/09 10:50:48;;;;;;;;;;;;;;;22.87;100.00;99502.34;5009153;28;20429;-77
2021/07/09 10:53:15;;;;;;;;;;;;;;;22.92;100.00;99507.34;4994835;28;19926;-77
2021/07/09 10:55:48;;;;;;;;;;;;;;;22.35;100.00;99505.41;4989789;28;20389;-77
2021/07/09 10:58:19;;;;;;;;;;;;;;;22.23;100.00;99507.31;5011274;28;19940;-77
2021/07/09 11:01:09;;;;;;;;;;;;;;;22.26;100.00;99503.47;4990467;28;20316;-77
2021/07/09 11:03:42;;;;;;;;;;;;;;;22.37;100.00;99500.78;4979693;28;19972;-77
2021/07/09 11:06:19;;;;;;;;;;;;;;;22.25;100.00;99496.19;4967115;28;20023;-78
2021/07/09 11:09:02;;;;;;;;;;;;;;;21.99;100.00;99495.22;5014238;28;19968;-77
2021/07/09 11:11:37;;;;;;;;;;;;;;;21.91;100.00;99493.28;5012596;28;20016;-78
2021/07/09 11:14:10;;;;;;;;;;;;;;;21.78;100.00;99487.84;5011608;28;19925;-79
2021/07/09 11:16:46;;;;;;;;;;;;;;;21.98;100.00;99487.19;5016579;28;20500;-78
2021/07/09 11:19:20;;;;;;;;;;;;;;;22.03;100.00;99478.75;4999381;28;20403;-76
2021/07/09 11:21:59;;;;;;;;;;;;;;;22.78;100.00;99484.63;5016281;28;19925;-78
2021/07/09 11:24:41;;;;;;;;;;;;;;;22.59;100.00;99481.25;4999751;28;20373;-77
2021/07/09 11:27:13;;;;;;;;;;;;;;;22.77;100.00;99491.59;4999213;28;19930;-77
2021/07/09 11:29:46;;;;;;;;;;;;;;;22.80;100.00;99480.00;5016388;28;19965;-78
2021/07/09 11:32:21;;;;;;;;;;;;;;;22.72;100.00;99473.13;4998985;28;19984;-77
2021/07/09 11:34:56;;;;;;;;;;;;;;;22.69;100.00;99476.97;4998834;28;19932;-77
2021/07/09 11:37:28;;;;;;;;;;;;;;;22.80;100.00;99480.00;4999417;28;20020;-77
2021/07/09 11:40:06;;;;;;;;;;;;;;;22.81;100.00;99475.84;5016622;28;19929;-77
2021/07/09 11:42:34;;;;;;;;;;;;;;;22.40;100.00;99477.03;4998778;28;19944;-77
2021/07/09 11:45:08;;;;;;;;;;;;;;;22.25;100.00;99481.97;5016101;28;19964;-77
2021/07/09 11:47:41;;;;;;;;;;;;;;;22.33;100.00;99476.66;4998926;28;19926;-78
2021/07/09 11:50:12;;;;;;;;;;;;;;;22.41;100.00;99481.47;5016064;28;19926;-77
2021/07/09 11:52:41;;;;;;;;;;;;;;;22.15;100.00;99479.72;4998857;28;19929;-77
2021/07/09 11:55:18;;;;;;;;;;;;;;;22.14;100.00;99473.25;5016585;28;19925;-77
2021/07/09 11:57:45;;;;;;;;;;;;;;;22.28;100.00;99480.97;5016579;28;19957;-78
2021/07/09 12:00:14;;;;;;;;;;;;;;;22.37;100.00;99480.09;5016755;28;19964;-77
2021/07/09 12:02:43;;;;;;;;;;;;;;;22.37;100.00;99486.56;5016420;28;20407;-77
2021/07/09 12:05:15;;;;;;;;;;;;;;;22.41;100.00;99484.31;5016556;28;19926;-79
2021/07/09 12:07:42;;;;;;;;;;;;;;;22.48;100.00;99481.03;4998703;28;19981;-77
2021/07/09 12:10:09;;;;;;;;;;;;;;;22.38;100.00;99481.66;4988144;28;20325;-77
2021/07/09 12:12:38;;;;;;;;;;;;;;;22.28;100.00;99483.06;5013400;28;19929;-77
2021/07/09 12:15:17;;;;;;;;;;;;;;;22.50;100.00;99484.22;5015710;28;19935;-77
2021/07/09 12:17:56;;;;;;;;;;;;;;;22.30;100.00;99475.59;4997810;28;20024;-77
2021/07/09 12:20:24;;;;;;;;;;;;;;;22.01;100.00;99481.28;5014825;28;19929;-77
2021/07/09 12:23:17;;;;;;;;;;;;;;;21.75;100.00;99479.53;5015147;28;19930;-77
2021/07/09 12:25:44;;;;;;;;;;;;;;;21.80;100.00;99488.16;4997368;28;19926;-77
2021/07/09 12:28:13;;;;;;;;;;;;;;;21.75;100.00;99473.84;4990762;28;20027;-77
2021/07/09 12:30:44;;;;;;;;;;;;;;;21.45;100.00;99487.19;5021719;28;19925;-77
2021/07/09 12:33:25;;;;;;;;;;;;;;;21.26;100.00;99474.44;5015153;28;19925;-77
2021/07/09 12:36:01;;;;;;;;;;;;;;;21.37;100.00;99471.81;5015968;28;19930;-76
2021/07/09 12:38:31;;;;;;;;;;;;;;;21.83;100.00;99464.44;5013939;28;19968;-77
2021/07/09 12:41:02;;;;;;;;;;;;;;;21.91;100.00;99464.81;5023744;28;19925;-77
2021/07/09 12:43:47;;;;;;;;;;;;;;;21.86;100.00;99468.34;5016395;28;19926;-78